createdAt,value
2022-08-23T00:00:13.491Z,9.47
2022-08-23T00:02:43.720Z,8.07
2022-08-23T00:05:12.979Z,8.03
2022-08-23T00:07:44.026Z,7.67
2022-08-23T00:10:15.656Z,8.53
2022-08-23T00:12:45.009Z,8.27
2022-08-23T00:15:18.066Z,9.13
2022-08-23T00:17:46.366Z,8.77
2022-08-23T00:20:17.467Z,9.77
2022-08-23T00:22:46.102Z,8.50
2022-08-23T00:25:15.455Z,8.47
2022-08-23T00:27:44.025Z,8.90
2022-08-23T00:30:15.196Z,9.30
2022-08-23T00:32:45.376Z,9.70
2022-08-23T00:35:22.245Z,10.20
2022-08-23T00:38:32.886Z,9.60
2022-08-23T00:40:51.973Z,8.83
2022-08-23T00:43:46.642Z,9.10
2022-08-23T00:46:48.125Z,8.90
2022-08-23T00:49:17.742Z,8.60
2022-08-23T00:51:54.162Z,9.13
2022-08-23T00:54:24.907Z,8.50
2022-08-23T00:56:56.592Z,8.23
2022-08-23T00:59:24.966Z,8.40
2022-08-23T01:01:54.723Z,9.07
2022-08-23T01:04:22.894Z,8.97
2022-08-23T01:06:58.984Z,9.03
2022-08-23T01:09:27.619Z,9.67
2022-08-23T01:12:02.846Z,10.70
2022-08-23T01:14:37.076Z,10.27
2022-08-23T01:17:11.678Z,10.07
2022-08-23T01:19:45.644Z,8.80
2022-08-23T01:22:22.041Z,10.50
2022-08-23T01:25:06.839Z,9.53
2022-08-23T01:27:37.391Z,10.37
2022-08-23T01:30:09.239Z,9.20
2022-08-23T01:32:47.617Z,9.40
2022-08-23T01:35:17.078Z,10.60
2022-08-23T01:37:46.994Z,10.93
2022-08-23T01:40:17.140Z,11.20
2022-08-23T01:42:45.336Z,10.97
2022-08-23T01:45:15.173Z,11.47
2022-08-23T01:47:44.052Z,11.57
2022-08-23T01:50:14.183Z,10.20
2022-08-23T01:52:47.036Z,10.20
2022-08-23T01:55:17.935Z,11.53
2022-08-23T01:57:48.321Z,10.37
2022-08-23T02:00:18.346Z,11.10
2022-08-23T02:02:47.129Z,10.87
2022-08-23T02:05:18.874Z,11.40
2022-08-23T02:07:48.065Z,12.43
2022-08-23T02:10:17.705Z,12.50
2022-08-23T02:12:46.665Z,10.63
2022-08-23T02:15:16.062Z,11.53
2022-08-23T02:17:45.514Z,11.80
2022-08-23T02:20:14.174Z,11.27
2022-08-23T02:22:42.420Z,11.50
2022-08-23T02:25:11.516Z,10.17
2022-08-23T02:27:44.159Z,10.27
2022-08-23T02:30:13.927Z,11.27
2022-08-23T02:32:42.472Z,10.43
2022-08-23T02:35:10.944Z,10.67
2022-08-23T02:37:39.314Z,12.17
2022-08-23T02:40:08.856Z,13.17
2022-08-23T02:42:37.032Z,14.20
2022-08-23T02:45:09.540Z,11.87
2022-08-23T02:47:37.989Z,12.53
2022-08-23T02:50:08.154Z,12.10
2022-08-23T02:52:36.503Z,11.43
2022-08-23T02:55:05.831Z,13.53
2022-08-23T02:57:34.220Z,13.47
2022-08-23T03:00:02.394Z,11.73
2022-08-23T03:02:32.888Z,12.87
2022-08-23T03:05:01.087Z,14.17
2022-08-23T03:07:30.130Z,14.87
2022-08-23T03:09:58.319Z,14.80
2022-08-23T03:12:27.122Z,14.10
2022-08-23T03:14:55.845Z,13.07
2022-08-23T03:17:24.478Z,12.70
2022-08-23T03:19:53.923Z,11.70
2022-08-23T03:22:23.361Z,16.13
2022-08-23T03:24:52.779Z,14.90
2022-08-23T03:27:20.925Z,15.07
2022-08-23T03:29:49.067Z,14.47
2022-08-23T03:32:17.259Z,16.27
2022-08-23T03:34:45.447Z,15.20
2022-08-23T03:37:15.453Z,14.10
2022-08-23T03:39:43.589Z,14.40
2022-08-23T03:42:11.982Z,13.93
2022-08-23T03:44:40.313Z,15.03
2022-08-23T03:47:08.567Z,15.67
2022-08-23T03:49:37.222Z,17.40
2022-08-23T03:52:06.978Z,17.53
2022-08-23T03:54:40.116Z,17.60
2022-08-23T03:57:10.866Z,17.27
2022-08-23T03:59:42.633Z,17.30
2022-08-23T04:02:11.186Z,18.90
2022-08-23T04:04:39.441Z,19.23
2022-08-23T04:07:07.581Z,20.40
2022-08-23T04:09:37.083Z,22.67
2022-08-23T04:12:11.952Z,23.60
2022-08-23T04:14:46.123Z,25.40
2022-08-23T04:17:14.580Z,25.50
2022-08-23T04:19:43.113Z,25.10
2022-08-23T04:22:14.254Z,26.70
2022-08-23T04:24:44.168Z,26.53
2022-08-23T04:27:13.106Z,24.93
2022-08-23T04:29:41.441Z,26.60
2022-08-23T04:32:12.601Z,25.07
2022-08-23T04:34:42.381Z,26.47
2022-08-23T04:37:14.329Z,26.40
2022-08-23T04:40:01.495Z,26.07
2022-08-23T04:42:29.992Z,25.93
2022-08-23T04:44:58.404Z,25.57
2022-08-23T04:47:26.611Z,26.60
2022-08-23T04:49:54.773Z,23.93
2022-08-23T04:52:22.882Z,27.27
2022-08-23T04:54:52.586Z,24.50
2022-08-23T04:57:20.763Z,23.60
2022-08-23T04:59:48.884Z,23.77
2022-08-23T05:02:17.014Z,24.50
2022-08-23T05:04:45.168Z,23.37
2022-08-23T05:07:15.322Z,24.10
2022-08-23T05:09:43.438Z,23.60
2022-08-23T05:12:13.274Z,24.73
2022-08-23T05:14:41.366Z,23.40
2022-08-23T05:17:16.028Z,23.87
2022-08-23T05:19:47.233Z,22.10
2022-08-23T05:22:15.826Z,23.90
2022-08-23T05:24:43.908Z,24.13
2022-08-23T05:27:13.886Z,23.93
2022-08-23T05:29:42.468Z,23.93
2022-08-23T05:32:10.791Z,25.23
2022-08-23T05:34:40.349Z,23.87
2022-08-23T05:37:08.414Z,24.80
2022-08-23T05:39:37.430Z,24.17
2022-08-23T05:42:06.622Z,24.03
2022-08-23T05:44:37.203Z,23.17
2022-08-23T05:47:11.220Z,23.30
2022-08-23T05:49:40.205Z,24.13
2022-08-23T05:52:11.683Z,23.17
2022-08-23T05:54:40.535Z,21.23
2022-08-23T05:57:10.515Z,22.43
2022-08-23T05:59:41.841Z,21.77
2022-08-23T06:02:10.657Z,21.13
2022-08-23T06:04:38.741Z,21.57
2022-08-23T06:07:07.004Z,21.00
2022-08-23T06:09:35.365Z,20.43
2022-08-23T06:12:03.991Z,19.73
2022-08-23T06:14:32.154Z,19.67
2022-08-23T06:17:01.763Z,19.97
2022-08-23T06:19:29.821Z,18.10
2022-08-23T06:21:58.000Z,19.47
2022-08-23T06:24:26.580Z,18.70
2022-08-23T06:26:54.700Z,17.77
2022-08-23T06:29:23.704Z,17.53
2022-08-23T06:31:54.119Z,17.77
2022-08-23T06:34:27.617Z,17.93
2022-08-23T06:36:59.084Z,17.97
2022-08-23T06:39:33.433Z,17.07
2022-08-23T06:42:34.476Z,16.53
2022-08-23T06:44:56.752Z,16.63
2022-08-23T06:47:24.886Z,15.90
2022-08-23T06:49:58.110Z,15.67
2022-08-23T06:52:28.348Z,15.13
2022-08-23T06:54:57.743Z,15.20
2022-08-23T06:57:26.482Z,14.27
2022-08-23T06:59:55.063Z,14.73
2022-08-23T07:02:23.276Z,14.93
2022-08-23T07:04:54.232Z,14.67
2022-08-23T07:07:22.618Z,15.10
2022-08-23T07:09:50.853Z,14.73
2022-08-23T07:12:19.857Z,14.00
2022-08-23T07:14:48.043Z,13.87
2022-08-23T07:17:16.290Z,12.80
2022-08-23T07:19:44.807Z,13.07
2022-08-23T07:22:15.589Z,13.10
2022-08-23T07:24:44.115Z,12.63
2022-08-23T07:27:12.669Z,12.33
2022-08-23T07:29:41.446Z,11.50
2022-08-23T07:32:10.329Z,10.77
2022-08-23T07:34:38.860Z,11.07
2022-08-23T07:37:11.199Z,11.00
2022-08-23T07:39:45.629Z,10.50
2022-08-23T07:42:23.297Z,11.47
2022-08-23T07:44:53.571Z,11.23
2022-08-23T07:47:22.166Z,10.10
2022-08-23T07:49:50.940Z,9.50
2022-08-23T07:52:19.096Z,9.90
2022-08-23T07:54:51.197Z,10.50
2022-08-23T07:57:20.034Z,10.33
2022-08-23T07:59:48.631Z,9.77
2022-08-23T08:02:16.886Z,9.60
2022-08-23T08:04:45.144Z,10.30
2022-08-23T08:07:21.361Z,11.03
2022-08-23T08:09:51.048Z,10.35
2022-08-23T08:12:20.039Z,10.13
2022-08-23T08:14:49.201Z,9.52
2022-08-23T08:17:18.389Z,9.88
2022-08-23T08:19:49.110Z,10.20
2022-08-23T08:22:17.238Z,9.82
2022-08-23T08:24:45.524Z,9.48
2022-08-23T08:27:15.224Z,9.27
2022-08-23T08:29:44.020Z,8.15
2022-08-23T08:32:13.962Z,8.27
2022-08-23T08:34:43.109Z,8.50
2022-08-23T08:37:11.442Z,7.75
2022-08-23T08:39:45.432Z,7.50
2022-08-23T08:42:55.489Z,7.85
2022-08-23T08:45:28.177Z,7.53
2022-08-23T08:48:04.106Z,7.72
2022-08-23T08:50:37.722Z,7.38
2022-08-23T08:53:10.604Z,7.72
2022-08-23T08:55:45.706Z,6.90
2022-08-23T08:58:21.921Z,6.38
2022-08-23T09:00:55.629Z,5.97
2022-08-23T09:03:30.677Z,6.38
2022-08-23T09:06:04.975Z,6.78
2022-08-23T09:08:49.444Z,6.45
2022-08-23T09:11:30.330Z,6.25
2022-08-23T09:14:37.910Z,5.57
2022-08-23T09:17:16.903Z,5.55
2022-08-23T09:19:49.849Z,5.50
2022-08-23T09:22:42.577Z,5.70
2022-08-23T09:25:13.009Z,5.65
2022-08-23T09:27:42.983Z,5.80
2022-08-23T09:30:15.245Z,6.18
2022-08-23T09:32:48.305Z,6.00
2022-08-23T09:35:20.900Z,5.78
2022-08-23T09:37:59.385Z,5.70
2022-08-23T09:40:38.981Z,5.70
2022-08-23T09:43:15.828Z,5.18
2022-08-23T09:45:58.909Z,4.75
2022-08-23T09:48:43.154Z,5.30
2022-08-23T09:51:19.897Z,4.82
2022-08-23T09:53:53.394Z,4.57
2022-08-23T09:56:26.571Z,4.45
2022-08-23T09:58:55.365Z,4.80
2022-08-23T10:01:28.592Z,5.03
2022-08-23T10:04:14.512Z,4.32
2022-08-23T10:06:46.156Z,4.40
2022-08-23T10:09:26.211Z,4.97
2022-08-23T10:11:55.042Z,4.40
2022-08-23T10:14:29.526Z,4.93
2022-08-23T10:17:09.408Z,4.70
2022-08-23T10:19:50.136Z,4.10
2022-08-23T10:22:22.625Z,4.05
2022-08-23T10:25:05.775Z,3.70
2022-08-23T10:28:06.398Z,3.58
2022-08-23T10:30:47.354Z,3.97
2022-08-23T10:33:21.926Z,3.70
2022-08-23T10:35:59.717Z,3.33
2022-08-23T10:38:38.758Z,3.63
2022-08-23T10:41:27.994Z,3.88
2022-08-23T10:44:16.002Z,3.47
2022-08-23T10:47:06.159Z,3.50
2022-08-23T10:49:39.284Z,3.72
2022-08-23T10:52:15.324Z,3.08
2022-08-23T10:54:59.905Z,3.10
2022-08-23T10:57:35.379Z,3.38
2022-08-23T11:00:08.888Z,3.50
2022-08-23T11:02:51.192Z,3.53
2022-08-23T11:05:27.121Z,3.47
2022-08-23T11:08:03.121Z,3.20
2022-08-23T11:10:53.834Z,3.60
2022-08-23T11:13:27.009Z,3.10
2022-08-23T11:16:01.809Z,3.15
2022-08-23T11:18:42.009Z,3.40
2022-08-23T11:21:44.722Z,3.60
2022-08-23T11:24:59.115Z,3.40
2022-08-23T11:27:38.181Z,3.30
2022-08-23T11:30:59.328Z,3.35
2022-08-23T11:33:34.813Z,3.38
2022-08-23T11:36:22.017Z,3.63
2022-08-23T11:39:09.122Z,3.10
2022-08-23T11:42:02.325Z,2.95
2022-08-23T11:44:38.847Z,3.20
2022-08-23T11:47:11.551Z,3.30
2022-08-23T11:50:26.132Z,3.60
2022-08-23T11:53:19.983Z,3.22
2022-08-23T11:56:17.573Z,3.22
2022-08-23T11:59:17.303Z,3.13
2022-08-23T12:01:47.214Z,2.83
2022-08-23T12:04:34.338Z,3.15
2022-08-23T12:07:07.141Z,2.90
2022-08-23T12:09:57.338Z,3.03
2022-08-23T12:12:34.831Z,2.88
2022-08-23T12:15:12.288Z,2.67
2022-08-23T12:18:14.504Z,3.05
2022-08-23T12:20:48.227Z,2.80
2022-08-23T12:23:22.103Z,2.65
2022-08-23T12:26:06.356Z,2.50
2022-08-23T12:28:42.537Z,2.70
2022-08-23T12:31:23.580Z,2.70
2022-08-23T12:34:13.565Z,2.50
2022-08-23T12:36:50.167Z,2.70
2022-08-23T12:39:30.946Z,2.50
2022-08-23T12:42:08.515Z,2.65
2022-08-23T12:44:36.857Z,2.60
2022-08-23T12:47:16.584Z,2.83
2022-08-23T12:49:58.160Z,2.40
2022-08-23T12:52:29.566Z,2.30
2022-08-23T12:54:58.126Z,2.70
2022-08-23T12:57:36.790Z,2.80
2022-08-23T13:00:24.470Z,2.50
2022-08-23T13:02:59.559Z,3.13
2022-08-23T13:05:37.965Z,2.63
2022-08-23T13:08:16.893Z,2.80
2022-08-23T13:10:46.594Z,2.85
2022-08-23T13:13:20.566Z,2.72
2022-08-23T13:15:53.903Z,2.72
2022-08-23T13:18:42.432Z,2.13
2022-08-23T13:21:31.875Z,3.05
2022-08-23T13:24:38.653Z,2.65
2022-08-23T13:27:22.145Z,3.25
2022-08-23T13:29:57.534Z,2.72
2022-08-23T13:32:33.447Z,2.50
2022-08-23T13:35:31.350Z,2.47
2022-08-23T13:38:09.349Z,2.78
2022-08-23T13:40:53.775Z,2.80
2022-08-23T13:43:25.741Z,2.70
2022-08-23T13:45:58.625Z,3.10
2022-08-23T13:48:31.608Z,3.00
2022-08-23T13:51:32.766Z,2.70
2022-08-23T13:54:06.043Z,2.90
2022-08-23T13:56:44.565Z,2.72
2022-08-23T13:59:31.707Z,2.55
2022-08-23T14:02:05.955Z,2.75
2022-08-23T14:04:34.703Z,2.50
2022-08-23T14:07:02.752Z,2.60
2022-08-23T14:09:30.866Z,2.38
2022-08-23T14:12:03.085Z,2.50
2022-08-23T14:14:35.070Z,2.60
2022-08-23T14:17:05.218Z,2.60
2022-08-23T14:22:27.760Z,2.80
2022-08-23T14:24:58.349Z,2.90
2022-08-23T14:27:26.495Z,2.80
2022-08-23T14:29:54.680Z,2.88
2022-08-23T14:32:24.462Z,2.97
2022-08-23T14:34:53.773Z,2.92
2022-08-23T14:38:02.929Z,3.00
2022-08-23T14:40:11.480Z,3.05
2022-08-23T14:42:39.736Z,2.72
2022-08-23T14:45:09.574Z,3.15
2022-08-23T14:47:39.083Z,3.13
2022-08-23T14:50:10.771Z,3.10
2022-08-23T14:52:42.125Z,2.95
2022-08-23T14:55:12.131Z,3.22
2022-08-23T14:57:40.475Z,2.70
2022-08-23T15:00:14.551Z,3.00
2022-08-23T15:02:47.464Z,3.03
2022-08-23T15:05:19.149Z,3.47
2022-08-23T15:07:50.737Z,2.90
2022-08-23T15:13:22.103Z,3.00
2022-08-23T15:15:55.633Z,3.17
2022-08-23T15:18:25.229Z,4.22
2022-08-23T15:20:53.668Z,3.10
2022-08-23T15:23:22.101Z,3.80
2022-08-23T15:25:50.462Z,2.88
2022-08-23T15:28:21.273Z,3.25
2022-08-23T15:30:51.713Z,2.80
2022-08-23T15:33:27.168Z,3.30
2022-08-23T15:36:03.485Z,2.75
2022-08-23T15:38:32.691Z,2.80
2022-08-23T15:41:01.419Z,2.75
2022-08-23T15:43:34.385Z,2.75
2022-08-23T15:46:06.529Z,2.83
2022-08-23T15:48:38.004Z,2.63
2022-08-23T15:51:07.984Z,2.60
2022-08-23T15:53:37.715Z,2.60
2022-08-23T15:56:11.490Z,2.38
2022-08-23T15:58:42.031Z,2.72
2022-08-23T16:01:10.633Z,2.50
2022-08-23T16:03:42.215Z,3.10
2022-08-23T16:06:14.196Z,2.67
2022-08-23T16:08:47.146Z,2.80
2022-08-23T16:11:15.297Z,3.00
2022-08-23T16:13:46.833Z,2.60
2022-08-23T16:16:20.790Z,2.58
2022-08-23T16:18:49.088Z,2.83
2022-08-23T16:21:20.127Z,2.53
2022-08-23T16:23:48.465Z,2.67
2022-08-23T16:26:21.567Z,2.80
2022-08-23T16:28:53.694Z,2.50
2022-08-23T16:31:23.001Z,2.75
2022-08-23T16:34:10.953Z,3.13
2022-08-23T16:36:44.693Z,2.97
2022-08-23T16:39:13.666Z,3.50
2022-08-23T16:41:42.147Z,3.53
2022-08-23T16:44:10.226Z,2.90
2022-08-23T16:46:42.751Z,3.30
2022-08-23T16:49:11.183Z,3.22
2022-08-23T16:51:41.125Z,3.40
2022-08-23T16:54:10.024Z,3.90
2022-08-23T16:56:40.738Z,3.72
2022-08-23T16:59:11.415Z,3.60
2022-08-23T17:01:50.574Z,3.53
2022-08-23T17:04:21.256Z,3.38
2022-08-23T17:06:52.317Z,3.67
2022-08-23T17:09:20.940Z,3.53
2022-08-23T17:11:50.270Z,3.67
2022-08-23T17:14:19.830Z,3.95
2022-08-23T17:16:48.290Z,3.70
2022-08-23T17:19:16.509Z,3.58
2022-08-23T17:21:45.076Z,3.38
2022-08-23T17:24:14.610Z,3.70
2022-08-23T17:26:43.088Z,3.58
2022-08-23T17:29:12.494Z,3.85
2022-08-23T17:31:40.685Z,4.03
2022-08-23T17:34:09.253Z,4.18
2022-08-23T17:36:41.830Z,3.58
2022-08-23T17:39:18.938Z,3.50
2022-08-23T17:41:47.873Z,3.65
2022-08-23T17:44:16.450Z,3.63
2022-08-23T17:46:46.364Z,3.78
2022-08-23T17:49:20.289Z,4.47
2022-08-23T17:51:49.330Z,4.63
2022-08-23T17:54:18.859Z,7.20
2022-08-23T17:56:50.644Z,5.35
2022-08-23T17:59:19.654Z,5.85
2022-08-23T18:01:47.938Z,4.80
2022-08-23T18:04:16.243Z,3.95
2022-08-23T18:06:44.998Z,3.70
2022-08-23T18:09:13.777Z,3.90
2022-08-23T18:11:43.370Z,4.30
2022-08-23T18:14:12.070Z,3.80
2022-08-23T18:16:40.794Z,4.28
2022-08-23T18:19:13.476Z,3.67
2022-08-23T18:21:42.303Z,4.13
2022-08-23T18:24:11.007Z,3.85
2022-08-23T18:26:57.585Z,4.55
2022-08-23T18:29:27.501Z,4.60
2022-08-23T18:31:55.666Z,7.15
2022-08-23T18:34:24.551Z,7.43
2022-08-23T18:36:53.736Z,7.57
2022-08-23T18:39:31.480Z,7.55
2022-08-23T18:42:01.179Z,8.20
2022-08-23T18:44:31.453Z,9.60
2022-08-23T18:46:59.947Z,10.52
2022-08-23T18:49:28.115Z,12.85
2022-08-23T18:51:56.551Z,12.90
2022-08-23T18:54:24.779Z,14.90
2022-08-23T18:56:52.894Z,14.48
2022-08-23T18:59:21.258Z,15.35
2022-08-23T19:01:51.196Z,16.45
2022-08-23T19:04:20.368Z,16.52
2022-08-23T19:06:48.529Z,19.35
2022-08-23T19:09:16.776Z,20.02
2022-08-23T19:11:45.564Z,20.65
2022-08-23T19:14:14.288Z,19.30
2022-08-23T19:16:47.598Z,20.73
2022-08-23T19:19:19.434Z,21.30
2022-08-23T19:21:49.175Z,19.50
2022-08-23T19:24:17.864Z,20.27
2022-08-23T19:26:47.587Z,19.92
2022-08-23T19:29:20.510Z,21.85
2022-08-23T19:31:49.005Z,23.45
2022-08-23T19:34:20.605Z,23.60
2022-08-23T19:36:56.740Z,24.33
2022-08-23T19:39:29.494Z,24.45
2022-08-23T19:41:58.483Z,24.10
2022-08-23T19:44:28.864Z,24.75
2022-08-23T19:46:57.608Z,27.10
2022-08-23T19:49:27.172Z,25.95
2022-08-23T19:51:55.480Z,26.42
2022-08-23T19:54:25.867Z,25.83
2022-08-23T19:56:58.441Z,26.83
2022-08-23T19:59:29.579Z,26.38
2022-08-23T20:01:59.375Z,27.58
2022-08-23T20:04:32.087Z,29.48
2022-08-23T20:07:03.984Z,31.85
2022-08-23T20:09:34.053Z,31.00
2022-08-23T20:12:03.245Z,30.70
2022-08-23T20:14:33.130Z,31.00
2022-08-23T20:17:04.617Z,33.00
2022-08-23T20:19:35.100Z,31.20
2022-08-23T20:22:17.174Z,33.90
2022-08-23T20:24:53.318Z,30.98
2022-08-23T20:27:28.358Z,32.00
2022-08-23T20:30:01.629Z,33.05
2022-08-23T20:32:31.152Z,34.60
2022-08-23T20:35:01.831Z,35.03
2022-08-23T20:37:30.855Z,35.85
2022-08-23T20:39:59.270Z,34.25
2022-08-23T20:42:28.539Z,37.30
2022-08-23T20:44:59.613Z,36.27
2022-08-23T20:47:27.734Z,32.92
2022-08-23T20:49:55.990Z,36.75
2022-08-23T20:52:25.492Z,36.00
2022-08-23T20:54:53.678Z,36.00
2022-08-23T20:57:21.972Z,37.33
2022-08-23T20:59:50.182Z,37.03
2022-08-23T21:02:18.465Z,38.57
2022-08-23T21:04:47.225Z,39.80
2022-08-23T21:07:16.197Z,38.47
2022-08-23T21:09:46.062Z,40.17
2022-08-23T21:12:14.170Z,40.40
2022-08-23T21:14:42.272Z,40.57
2022-08-23T21:17:10.457Z,39.80
2022-08-23T21:19:39.019Z,38.00
2022-08-23T21:22:07.214Z,38.17
2022-08-23T21:24:35.404Z,40.90
2022-08-23T21:27:09.542Z,41.97
2022-08-23T21:29:38.611Z,42.87
2022-08-23T21:32:07.469Z,40.27
2022-08-23T21:34:36.077Z,39.03
2022-08-23T21:37:04.259Z,38.28
2022-08-23T21:39:32.407Z,40.80
2022-08-23T21:42:00.545Z,42.80
2022-08-23T21:44:30.079Z,44.10
2022-08-23T21:46:58.326Z,44.03
2022-08-23T21:49:26.502Z,44.72
2022-08-23T21:51:54.593Z,44.83
2022-08-23T21:54:24.496Z,49.78
2022-08-23T21:56:53.333Z,49.17
2022-08-23T21:59:21.676Z,48.53
2022-08-23T22:01:51.749Z,47.77
2022-08-23T22:04:20.057Z,46.22
2022-08-23T22:06:48.987Z,49.10
2022-08-23T22:09:20.265Z,52.43
2022-08-23T22:11:54.882Z,53.13
2022-08-23T22:14:31.199Z,55.30
2022-08-23T22:17:01.790Z,52.70
2022-08-23T22:19:30.232Z,54.63
2022-08-23T22:21:58.646Z,54.37
2022-08-23T22:24:27.042Z,54.38
2022-08-23T22:26:56.254Z,52.60
2022-08-23T22:29:24.934Z,55.53
2022-08-23T22:31:53.079Z,53.40
2022-08-23T22:34:22.659Z,49.30
2022-08-23T22:36:52.223Z,51.37
2022-08-23T22:39:21.551Z,49.77
2022-08-23T22:41:50.012Z,54.00
2022-08-23T22:44:18.419Z,45.50
2022-08-23T22:46:46.677Z,50.80
2022-08-23T22:49:15.118Z,44.93
2022-08-23T22:51:45.322Z,50.97
2022-08-23T22:54:14.836Z,56.83
2022-08-23T22:56:45.953Z,52.03
2022-08-23T22:59:16.118Z,57.00
2022-08-23T23:01:47.732Z,56.77
2022-08-23T23:04:18.887Z,57.47
2022-08-23T23:06:50.735Z,57.87
2022-08-23T23:09:19.370Z,54.47
2022-08-23T23:11:48.584Z,58.73
2022-08-23T23:14:20.002Z,55.43
2022-08-23T23:16:50.033Z,59.07
2022-08-23T23:19:36.531Z,59.07
2022-08-23T23:22:07.765Z,59.23
2022-08-23T23:24:39.681Z,60.97
2022-08-23T23:27:08.821Z,58.97
2022-08-23T23:29:38.370Z,58.90
2022-08-23T23:32:06.992Z,53.60
2022-08-23T23:34:35.853Z,59.30
2022-08-23T23:37:05.699Z,61.50
2022-08-23T23:39:34.035Z,62.43
2022-08-23T23:42:02.199Z,61.37
2022-08-23T23:44:31.503Z,59.17
2022-08-23T23:47:01.259Z,61.83
2022-08-23T23:49:32.677Z,62.43
2022-08-23T23:52:02.692Z,64.17
2022-08-23T23:54:33.924Z,65.83
2022-08-23T23:57:02.801Z,69.20
2022-08-23T23:59:30.945Z,66.07
